Terminal Aerodrome Forecast
Issued by NWS

Home | Current Version | Previous Version | Graphics & Text | Print | Product List | Glossary On
Versions: 1 2 3 4 5 6 7 8 9 10 11 12 13 14 15 16
000
FTUS43 KGRB 210500
TAFATW
TAF
KATW 210520Z 2106/2206 26004KT P6SM SKC
     FM211600 21009KT P6SM SCT100 SCT150
     FM212200 19009KT P6SM SCT080 SCT120 WS015/22030KT
     FM220300 20010KT 6SM BR BKN030 BKN120 WS015/22045KT=

USA.gov is the U.S. government's official web portal to all federal, state and local government web resources and services.